createdAt,value
2023-01-13T00:00:21.209Z,8.49
2023-01-13T00:02:26.194Z,8.50
2023-01-13T00:04:31.039Z,8.51
2023-01-13T00:06:35.936Z,8.53
2023-01-13T00:08:40.876Z,8.54
2023-01-13T00:10:48.391Z,8.54
2023-01-13T00:12:53.286Z,8.55
2023-01-13T00:14:58.083Z,8.57
2023-01-13T00:17:03.250Z,8.57
2023-01-13T00:19:08.007Z,8.57
2023-01-13T00:21:16.531Z,8.48
2023-01-13T00:23:24.010Z,8.37
2023-01-13T00:25:28.859Z,8.25
2023-01-13T00:27:34.080Z,8.18
2023-01-13T00:29:39.491Z,8.09
2023-01-13T00:31:44.419Z,8.04
2023-01-13T00:33:49.581Z,7.96
2023-01-13T00:36:01.686Z,7.88
2023-01-13T00:38:06.606Z,7.81
2023-01-13T00:40:13.541Z,7.79
2023-01-13T00:42:18.589Z,7.77
2023-01-13T00:44:23.493Z,7.74
2023-01-13T00:46:28.347Z,7.75
2023-01-13T00:48:33.347Z,7.74
2023-01-13T00:50:41.146Z,7.75
2023-01-13T00:52:48.881Z,7.76
2023-01-13T00:54:53.755Z,7.76
2023-01-13T00:56:58.593Z,7.79
2023-01-13T00:59:03.564Z,7.80
2023-01-13T01:01:11.388Z,7.81
2023-01-13T01:03:16.269Z,7.84
2023-01-13T01:05:21.076Z,7.88
2023-01-13T01:07:25.863Z,7.92
2023-01-13T01:09:30.767Z,7.96
2023-01-13T01:11:36.406Z,8.01
2023-01-13T01:13:46.489Z,8.06
2023-01-13T01:15:51.395Z,8.09
2023-01-13T01:17:56.236Z,8.14
2023-01-13T01:20:01.110Z,8.19
2023-01-13T01:22:06.006Z,8.23
2023-01-13T01:24:11.197Z,8.26
2023-01-13T01:26:18.337Z,8.27
2023-01-13T01:28:23.240Z,8.25
2023-01-13T01:30:30.354Z,8.22
2023-01-13T01:32:36.513Z,8.18
2023-01-13T01:34:41.360Z,8.12
2023-01-13T01:36:46.330Z,8.05
2023-01-13T01:38:51.292Z,8.02
2023-01-13T01:40:56.145Z,7.94
2023-01-13T01:43:01.051Z,7.87
2023-01-13T01:45:14.392Z,7.82
2023-01-13T01:47:20.486Z,7.74
2023-01-13T01:49:30.949Z,7.68
2023-01-13T01:51:40.492Z,7.66
2023-01-13T01:53:46.173Z,7.68
2023-01-13T01:55:51.379Z,7.66
2023-01-13T01:58:02.200Z,7.64
2023-01-13T02:00:11.509Z,7.64
2023-01-13T02:02:19.516Z,7.67
2023-01-13T02:04:28.147Z,7.73
2023-01-13T02:06:32.942Z,7.77
2023-01-13T02:08:40.324Z,7.81
2023-01-13T02:10:51.039Z,7.82
2023-01-13T02:12:58.149Z,7.81
2023-01-13T02:15:08.509Z,7.79
2023-01-13T02:17:26.408Z,7.75
2023-01-13T02:20:04.480Z,7.73
2023-01-13T02:22:26.399Z,7.74
2023-01-13T02:24:59.029Z,7.79
2023-01-13T02:27:44.154Z,7.85
2023-01-13T02:30:03.357Z,7.87
2023-01-13T02:32:14.927Z,7.90
2023-01-13T02:34:25.963Z,7.94
2023-01-13T02:36:37.219Z,8.00
2023-01-13T02:38:50.194Z,8.07
2023-01-13T02:40:58.036Z,8.11
2023-01-13T02:43:08.518Z,8.14
2023-01-13T02:45:17.516Z,8.18
2023-01-13T02:47:25.328Z,8.22
2023-01-13T02:49:36.668Z,8.26
2023-01-13T02:51:45.916Z,8.33
2023-01-13T02:53:55.185Z,8.38
2023-01-13T02:56:02.115Z,8.41
2023-01-13T02:58:10.544Z,8.47
2023-01-13T03:00:18.317Z,8.52
2023-01-13T03:02:25.125Z,8.56
2023-01-13T03:04:59.016Z,8.56
2023-01-13T03:07:11.907Z,8.57
2023-01-13T03:09:25.433Z,8.59
2023-01-13T03:11:34.561Z,8.63
2023-01-13T03:14:00.133Z,8.63
2023-01-13T03:16:15.723Z,8.57
2023-01-13T03:18:35.654Z,8.56
2023-01-13T03:20:47.752Z,8.60
2023-01-13T03:23:03.249Z,8.66
2023-01-13T03:25:14.017Z,8.71
2023-01-13T03:27:25.190Z,8.75
2023-01-13T03:29:35.458Z,8.78
2023-01-13T03:31:46.548Z,8.81
2023-01-13T03:33:58.661Z,8.84
2023-01-13T03:36:08.015Z,8.84
2023-01-13T03:38:17.251Z,8.80
2023-01-13T03:40:25.607Z,8.79
2023-01-13T03:42:33.599Z,8.79
2023-01-13T03:44:44.900Z,8.77
2023-01-13T03:46:56.534Z,8.70
2023-01-13T03:49:02.772Z,8.66
2023-01-13T03:51:11.101Z,8.66
2023-01-13T03:53:20.044Z,8.64
2023-01-13T03:55:29.541Z,8.62
2023-01-13T03:57:39.933Z,8.56
2023-01-13T03:59:48.628Z,8.51
2023-01-13T04:01:59.731Z,8.50
2023-01-13T04:04:09.425Z,8.53
2023-01-13T04:06:17.994Z,8.55
2023-01-13T04:08:26.063Z,8.51
2023-01-13T04:10:35.616Z,8.50
2023-01-13T04:12:48.120Z,8.51
2023-01-13T04:14:53.809Z,8.50
2023-01-13T04:16:58.838Z,8.50
2023-01-13T04:19:03.465Z,8.46
2023-01-13T04:21:08.901Z,8.42
2023-01-13T04:23:13.939Z,8.39
2023-01-13T04:25:18.949Z,8.33
2023-01-13T04:27:23.648Z,8.28
2023-01-13T04:29:29.101Z,8.27
2023-01-13T04:31:33.874Z,8.29
2023-01-13T04:33:38.637Z,8.32
2023-01-13T04:35:43.953Z,8.33
2023-01-13T04:37:48.796Z,8.36
2023-01-13T04:39:53.746Z,8.37
2023-01-13T04:41:58.521Z,8.40
2023-01-13T04:44:03.238Z,8.41
2023-01-13T04:46:08.088Z,8.43
2023-01-13T04:48:13.220Z,8.44
2023-01-13T04:50:18.523Z,8.45
2023-01-13T04:52:23.240Z,8.45
2023-01-13T04:54:27.981Z,8.46
2023-01-13T04:56:32.675Z,8.48
2023-01-13T04:58:37.413Z,8.49
2023-01-13T05:00:42.513Z,8.47
2023-01-13T05:02:48.952Z,8.42
2023-01-13T05:04:53.682Z,8.36
2023-01-13T05:06:58.358Z,8.32
2023-01-13T05:09:03.467Z,8.26
2023-01-13T05:11:08.295Z,8.26
2023-01-13T05:13:13.037Z,8.29
2023-01-13T05:15:17.989Z,8.29
2023-01-13T05:17:24.938Z,8.28
2023-01-13T05:19:30.502Z,8.21
2023-01-13T05:21:35.232Z,8.09
2023-01-13T05:23:39.950Z,8.04
2023-01-13T05:25:46.934Z,7.99
2023-01-13T05:27:52.934Z,7.91
2023-01-13T05:29:57.839Z,7.81
2023-01-13T05:32:02.490Z,7.78
2023-01-13T05:34:07.168Z,7.69
2023-01-13T05:36:12.267Z,7.59
2023-01-13T05:38:17.493Z,7.54
2023-01-13T05:40:22.597Z,7.48
2023-01-13T05:42:27.410Z,7.38
2023-01-13T05:44:32.104Z,7.29
2023-01-13T05:46:36.896Z,7.17
2023-01-13T05:48:42.740Z,7.03
2023-01-13T05:50:48.006Z,6.95
2023-01-13T05:52:52.735Z,6.88
2023-01-13T05:54:57.624Z,6.85
2023-01-13T05:57:02.297Z,6.84
2023-01-13T05:59:06.979Z,6.84
2023-01-13T06:01:12.092Z,6.84
2023-01-13T06:03:17.666Z,6.81
2023-01-13T06:05:22.853Z,6.73
2023-01-13T06:07:27.651Z,6.66
2023-01-13T06:09:32.707Z,6.58
2023-01-13T06:11:37.409Z,6.50
2023-01-13T06:13:42.100Z,6.41
2023-01-13T06:15:46.905Z,6.35
2023-01-13T06:17:52.190Z,6.29
2023-01-13T06:19:56.826Z,6.21
2023-01-13T06:22:06.518Z,6.11
2023-01-13T06:24:11.388Z,6.07
2023-01-13T06:26:20.186Z,6.03
2023-01-13T06:28:24.898Z,6.01
2023-01-13T06:30:33.928Z,6.00
2023-01-13T06:32:43.045Z,6.01
2023-01-13T06:34:53.001Z,6.00
2023-01-13T06:36:57.993Z,5.96
2023-01-13T06:39:04.211Z,5.94
2023-01-13T06:41:09.711Z,5.93
2023-01-13T06:43:16.444Z,5.95
2023-01-13T06:45:22.494Z,5.98
2023-01-13T06:47:27.238Z,6.03
2023-01-13T06:49:32.014Z,6.07
2023-01-13T06:51:36.918Z,6.12
2023-01-13T06:53:41.652Z,6.15
2023-01-13T06:55:46.306Z,6.18
2023-01-13T06:57:53.364Z,6.21
2023-01-13T06:59:58.054Z,6.22
2023-01-13T07:02:03.098Z,6.26
2023-01-13T07:04:08.037Z,6.28
2023-01-13T07:06:12.797Z,6.26
2023-01-13T07:08:17.531Z,6.26
2023-01-13T07:10:22.319Z,6.27
2023-01-13T07:12:27.240Z,6.31
2023-01-13T07:14:32.788Z,6.37
2023-01-13T07:16:37.724Z,6.43
2023-01-13T07:18:42.665Z,6.48
2023-01-13T07:20:53.597Z,6.53
2023-01-13T07:22:58.653Z,6.52
2023-01-13T07:25:03.391Z,6.52
2023-01-13T07:27:08.109Z,6.49
2023-01-13T07:29:13.262Z,6.50
2023-01-13T07:31:19.898Z,6.50
2023-01-13T07:33:25.135Z,6.50
2023-01-13T07:35:30.010Z,6.48
2023-01-13T07:37:36.891Z,6.46
2023-01-13T07:39:44.680Z,6.44
2023-01-13T07:41:49.357Z,6.47
2023-01-13T07:43:54.303Z,6.48
2023-01-13T07:45:59.934Z,6.45
2023-01-13T07:48:05.347Z,6.42
2023-01-13T07:50:11.538Z,6.42
2023-01-13T07:52:16.291Z,6.39
2023-01-13T07:54:25.536Z,6.37
2023-01-13T07:56:36.487Z,6.38
2023-01-13T07:58:41.782Z,6.40
2023-01-13T08:00:46.663Z,6.37
2023-01-13T08:02:51.504Z,6.37
2023-01-13T08:04:56.256Z,6.36
2023-01-13T08:07:00.974Z,6.35
2023-01-13T08:09:05.912Z,6.31
2023-01-13T08:11:10.692Z,6.29
2023-01-13T08:13:17.949Z,6.28
2023-01-13T08:15:22.698Z,6.29
2023-01-13T08:17:27.666Z,6.30
2023-01-13T08:19:32.326Z,6.30
2023-01-13T08:21:37.041Z,6.32
2023-01-13T08:23:42.434Z,6.35
2023-01-13T08:25:47.457Z,6.40
2023-01-13T08:27:52.605Z,6.47
2023-01-13T08:29:57.317Z,6.55
2023-01-13T08:32:02.099Z,6.62
2023-01-13T08:34:06.844Z,6.68
2023-01-13T08:36:14.976Z,6.74
2023-01-13T08:38:19.767Z,6.80
2023-01-13T08:40:24.503Z,6.87
2023-01-13T08:42:29.254Z,6.91
2023-01-13T08:44:34.310Z,6.93
2023-01-13T08:46:39.171Z,6.93
2023-01-13T08:48:43.838Z,6.94
2023-01-13T08:50:48.680Z,6.95
2023-01-13T08:52:53.652Z,7.00
2023-01-13T08:54:58.384Z,7.06
2023-01-13T08:57:03.223Z,7.09
2023-01-13T08:59:09.834Z,7.10
2023-01-13T09:01:16.990Z,7.12
2023-01-13T09:03:21.786Z,7.12
2023-01-13T09:05:26.985Z,7.11
2023-01-13T09:07:32.239Z,7.08
2023-01-13T09:09:37.268Z,7.07
2023-01-13T09:11:45.336Z,7.10
2023-01-13T09:13:50.150Z,7.13
2023-01-13T09:15:55.120Z,7.16
2023-01-13T09:17:59.963Z,7.14
2023-01-13T09:20:05.550Z,7.13
2023-01-13T09:22:13.942Z,7.11
2023-01-13T09:24:18.769Z,7.09
2023-01-13T09:26:23.576Z,7.13
2023-01-13T09:28:28.435Z,7.19
2023-01-13T09:30:33.287Z,7.24
2023-01-13T09:32:38.160Z,7.28
2023-01-13T09:34:43.147Z,7.32
2023-01-13T09:36:47.911Z,7.37
2023-01-13T09:38:52.623Z,7.42
2023-01-13T09:40:57.454Z,7.50
2023-01-13T09:43:11.147Z,7.57
2023-01-13T09:45:19.590Z,7.65
2023-01-13T09:47:30.834Z,7.71
2023-01-13T09:49:39.524Z,7.74
2023-01-13T09:51:49.761Z,7.79
2023-01-13T09:53:59.507Z,7.86
2023-01-13T09:56:05.313Z,7.96
2023-01-13T09:58:14.854Z,8.00
2023-01-13T10:00:23.853Z,8.03
2023-01-13T10:02:37.378Z,8.08
2023-01-13T10:04:42.185Z,8.13
2023-01-13T10:06:52.257Z,8.17
2023-01-13T10:08:57.575Z,8.22
2023-01-13T10:11:07.130Z,8.26
2023-01-13T10:13:19.541Z,8.28
2023-01-13T10:15:27.390Z,8.20
2023-01-13T10:17:37.232Z,8.13
2023-01-13T10:19:48.706Z,8.06
2023-01-13T10:22:19.602Z,8.07
2023-01-13T10:24:39.689Z,8.15
2023-01-13T10:26:59.057Z,8.17
2023-01-13T10:29:03.825Z,8.17
2023-01-13T10:31:13.550Z,8.10
2023-01-13T10:33:22.076Z,8.09
2023-01-13T10:35:56.295Z,8.12
2023-01-13T10:38:01.029Z,8.18
2023-01-13T10:40:17.022Z,8.19
2023-01-13T10:42:23.209Z,8.22
2023-01-13T10:44:28.000Z,8.28
2023-01-13T10:46:34.807Z,8.36
2023-01-13T10:48:42.700Z,8.46
2023-01-13T10:50:48.971Z,8.58
2023-01-13T10:53:02.606Z,8.68
2023-01-13T10:55:27.254Z,8.72
2023-01-13T10:57:37.347Z,8.83
2023-01-13T10:59:42.148Z,8.92
2023-01-13T11:01:59.391Z,9.04
2023-01-13T11:04:25.951Z,9.11
2023-01-13T11:06:31.452Z,9.23
2023-01-13T11:08:45.449Z,9.33
2023-01-13T11:10:52.366Z,9.44
2023-01-13T11:13:03.783Z,9.53
2023-01-13T11:15:15.879Z,9.64
2023-01-13T11:17:39.938Z,9.74
2023-01-13T11:19:52.261Z,9.82
2023-01-13T11:22:01.620Z,9.87
2023-01-13T11:24:15.486Z,9.89
2023-01-13T11:26:26.983Z,9.94
2023-01-13T11:28:40.231Z,10.02
2023-01-13T11:30:53.395Z,10.08
2023-01-13T11:33:27.280Z,10.16
2023-01-13T11:35:36.132Z,10.22
2023-01-13T11:37:47.701Z,10.27
2023-01-13T11:40:00.871Z,10.30
2023-01-13T11:42:17.128Z,10.31
2023-01-13T11:44:28.558Z,10.32
2023-01-13T11:46:33.358Z,10.31
2023-01-13T11:48:43.160Z,10.38
2023-01-13T11:50:54.118Z,10.48
2023-01-13T11:53:12.132Z,10.61
2023-01-13T11:55:31.573Z,10.72
2023-01-13T11:57:55.717Z,10.82
2023-01-13T12:00:25.277Z,10.88
2023-01-13T12:02:48.688Z,10.89
2023-01-13T12:05:07.851Z,10.93
2023-01-13T12:07:22.165Z,10.97
2023-01-13T12:09:47.689Z,10.98
2023-01-13T12:12:03.810Z,10.99
2023-01-13T12:14:20.163Z,11.04
2023-01-13T12:16:27.079Z,11.14
2023-01-13T12:18:55.212Z,11.21
2023-01-13T12:21:13.556Z,11.26
2023-01-13T12:23:26.938Z,11.30
2023-01-13T12:25:37.577Z,11.34
2023-01-13T12:27:47.300Z,11.40
2023-01-13T12:29:56.305Z,11.44
2023-01-13T12:32:03.863Z,11.49
2023-01-13T12:34:24.686Z,11.54
2023-01-13T12:36:37.811Z,11.64
2023-01-13T12:38:48.199Z,11.74
2023-01-13T12:41:07.507Z,11.81
2023-01-13T12:43:18.144Z,11.90
2023-01-13T12:45:30.867Z,12.00
2023-01-13T12:47:38.192Z,12.04
2023-01-13T12:49:42.940Z,12.06
2023-01-13T12:52:04.131Z,12.11
2023-01-13T12:54:53.462Z,12.12
2023-01-13T12:56:58.645Z,12.14
2023-01-13T12:59:38.652Z,12.16
2023-01-13T13:01:44.344Z,12.07
2023-01-13T13:04:13.337Z,12.01
2023-01-13T13:06:22.748Z,11.98
2023-01-13T13:08:41.530Z,11.97
2023-01-13T13:11:00.352Z,11.92
2023-01-13T13:13:20.132Z,11.91
2023-01-13T13:15:27.634Z,11.92
2023-01-13T13:18:00.051Z,11.90
2023-01-13T13:20:05.152Z,11.84
2023-01-13T13:22:18.370Z,11.79
2023-01-13T13:24:29.517Z,11.75
2023-01-13T13:26:38.890Z,11.74
2023-01-13T13:28:55.439Z,11.76
2023-01-13T13:31:11.106Z,11.72
2023-01-13T13:33:33.508Z,11.66
2023-01-13T13:36:02.411Z,11.63
2023-01-13T13:38:18.425Z,11.58
2023-01-13T13:40:23.982Z,11.49
2023-01-13T13:42:36.794Z,11.46
2023-01-13T13:44:45.810Z,11.44
2023-01-13T13:46:50.634Z,11.43
2023-01-13T13:48:56.411Z,11.41
2023-01-13T13:51:03.182Z,11.38
2023-01-13T13:53:08.513Z,11.35
2023-01-13T13:55:19.828Z,11.27
2023-01-13T13:57:32.650Z,11.18
2023-01-13T13:59:40.093Z,11.08
2023-01-13T14:01:52.509Z,10.97
2023-01-13T14:04:12.545Z,10.89
2023-01-13T14:06:23.159Z,10.83
2023-01-13T14:08:29.351Z,10.78
2023-01-13T14:10:36.770Z,10.70
2023-01-13T14:12:41.443Z,10.66
2023-01-13T14:14:47.377Z,10.60
2023-01-13T14:16:52.514Z,10.50
2023-01-13T14:18:57.289Z,10.46
2023-01-13T14:21:13.950Z,10.39
2023-01-13T14:23:21.942Z,10.30
2023-01-13T14:25:34.623Z,10.23
2023-01-13T14:27:44.117Z,10.17
2023-01-13T14:29:49.466Z,10.10
2023-01-13T14:31:55.145Z,10.08
2023-01-13T14:34:02.842Z,10.04
2023-01-13T14:36:40.644Z,10.01
2023-01-13T14:38:47.523Z,9.96
2023-01-13T14:40:52.393Z,9.91
2023-01-13T14:43:01.479Z,9.83
2023-01-13T14:45:23.403Z,9.76
2023-01-13T14:47:29.170Z,9.68
2023-01-13T14:49:37.496Z,9.62
2023-01-13T14:51:42.307Z,9.53
2023-01-13T14:53:47.616Z,9.47
2023-01-13T14:55:52.398Z,9.43
2023-01-13T14:58:26.269Z,9.35
2023-01-13T15:00:31.310Z,9.31
2023-01-13T15:02:41.520Z,9.30
2023-01-13T15:04:46.216Z,9.27
2023-01-13T15:06:56.733Z,9.27
2023-01-13T15:09:01.504Z,9.27
2023-01-13T15:11:18.055Z,9.28
2023-01-13T15:13:34.306Z,9.29
2023-01-13T15:15:41.970Z,9.27
2023-01-13T15:17:46.916Z,9.23
2023-01-13T15:19:53.026Z,9.16
2023-01-13T15:21:58.051Z,9.13
2023-01-13T15:24:02.677Z,9.08
2023-01-13T15:26:17.010Z,9.03
2023-01-13T15:28:23.441Z,8.94
2023-01-13T15:30:28.554Z,8.80
2023-01-13T15:32:33.169Z,8.71
2023-01-13T15:34:37.836Z,8.65
2023-01-13T15:36:42.544Z,8.61
2023-01-13T15:38:47.287Z,8.59
2023-01-13T15:40:52.518Z,8.59
2023-01-13T15:42:57.255Z,8.59
2023-01-13T15:45:02.037Z,8.60
2023-01-13T15:47:09.581Z,8.62
2023-01-13T15:49:21.395Z,8.62
2023-01-13T15:51:26.123Z,8.59
2023-01-13T15:53:30.852Z,8.55
2023-01-13T15:55:38.245Z,8.54
2023-01-13T15:57:48.098Z,8.54
2023-01-13T15:59:55.219Z,8.55
2023-01-13T16:01:59.905Z,8.58
2023-01-13T16:04:05.003Z,8.66
2023-01-13T16:06:16.372Z,8.78
2023-01-13T16:08:22.900Z,8.87
2023-01-13T16:10:28.527Z,8.95
2023-01-13T16:12:33.332Z,8.97
2023-01-13T16:14:38.379Z,8.96
2023-01-13T16:16:43.102Z,8.88
2023-01-13T16:18:48.007Z,8.81
2023-01-13T16:20:53.665Z,8.84
2023-01-13T16:22:58.370Z,8.89
2023-01-13T16:25:03.096Z,8.89
2023-01-13T16:27:14.699Z,8.90
2023-01-13T16:29:19.493Z,8.93
2023-01-13T16:31:29.603Z,8.94
2023-01-13T16:33:34.446Z,8.99
2023-01-13T16:36:08.770Z,8.99
2023-01-13T16:38:03.835Z,8.99
2023-01-13T16:40:17.974Z,9.00
2023-01-13T16:42:23.144Z,8.92
2023-01-13T16:44:28.201Z,8.86
2023-01-13T16:46:33.741Z,8.75
2023-01-13T16:48:38.497Z,8.64
2023-01-13T16:50:43.937Z,8.61
2023-01-13T16:52:48.747Z,8.58
2023-01-13T16:54:53.492Z,8.55
2023-01-13T16:56:58.207Z,8.51
2023-01-13T16:59:10.898Z,8.45
2023-01-13T17:01:21.507Z,8.44
2023-01-13T17:03:26.466Z,8.45
2023-01-13T17:05:34.546Z,8.44
2023-01-13T17:07:39.672Z,8.40
2023-01-13T17:09:44.648Z,8.36
2023-01-13T17:11:49.665Z,8.31
2023-01-13T17:13:54.523Z,8.28
2023-01-13T17:15:59.281Z,8.26
2023-01-13T17:18:04.267Z,8.27
2023-01-13T17:20:14.243Z,8.25
2023-01-13T17:22:19.293Z,8.23
2023-01-13T17:24:24.065Z,8.24
2023-01-13T17:26:33.103Z,8.21
2023-01-13T17:28:37.824Z,8.10
2023-01-13T17:30:45.738Z,8.01
2023-01-13T17:32:51.007Z,7.91
2023-01-13T17:34:57.042Z,7.83
2023-01-13T17:37:03.270Z,7.77
2023-01-13T17:39:08.208Z,7.71
2023-01-13T17:41:14.543Z,7.67
2023-01-13T17:43:19.524Z,7.65
2023-01-13T17:45:24.632Z,7.60
2023-01-13T17:47:30.077Z,7.56
2023-01-13T17:49:35.233Z,7.52
2023-01-13T17:51:40.727Z,7.50
2023-01-13T17:53:47.146Z,7.44
2023-01-13T17:55:53.359Z,7.39
2023-01-13T17:57:58.126Z,7.34
2023-01-13T18:00:04.340Z,7.28
2023-01-13T18:02:17.644Z,7.23
2023-01-13T18:04:25.722Z,7.18
2023-01-13T18:06:30.960Z,7.13
2023-01-13T18:08:35.743Z,7.10
2023-01-13T18:10:40.926Z,7.08
2023-01-13T18:12:46.335Z,7.09
2023-01-13T18:14:51.483Z,7.13
2023-01-13T18:16:56.746Z,7.19
2023-01-13T18:19:02.562Z,7.25
2023-01-13T18:21:08.888Z,7.29
2023-01-13T18:23:18.374Z,7.35
2023-01-13T18:25:23.952Z,7.38
2023-01-13T18:27:33.175Z,7.36
2023-01-13T18:29:38.423Z,7.36
2023-01-13T18:31:43.553Z,7.35
2023-01-13T18:33:49.112Z,7.34
2023-01-13T18:35:54.258Z,7.33
2023-01-13T18:37:59.435Z,7.26
2023-01-13T18:40:05.306Z,7.24
2023-01-13T18:42:11.685Z,7.24
2023-01-13T18:44:18.095Z,7.25
2023-01-13T18:46:23.028Z,7.31
2023-01-13T18:48:28.357Z,7.38
2023-01-13T18:50:33.867Z,7.44
2023-01-13T18:52:39.420Z,7.46
2023-01-13T18:54:45.284Z,7.47
2023-01-13T18:56:50.872Z,7.50
2023-01-13T18:58:56.756Z,7.51
2023-01-13T19:01:06.204Z,7.54
2023-01-13T19:03:12.211Z,7.58
2023-01-13T19:05:17.504Z,7.62
2023-01-13T19:07:23.794Z,7.65
2023-01-13T19:09:28.902Z,7.67
2023-01-13T19:11:34.850Z,7.71
2023-01-13T19:13:40.121Z,7.74
2023-01-13T19:15:45.024Z,7.79
2023-01-13T19:17:50.136Z,7.80
2023-01-13T19:19:56.916Z,7.80
2023-01-13T19:22:02.358Z,7.78
2023-01-13T19:24:09.172Z,7.77
2023-01-13T19:26:15.859Z,7.78
2023-01-13T19:28:21.187Z,7.81
2023-01-13T19:30:26.380Z,7.83
2023-01-13T19:32:32.409Z,7.88
2023-01-13T19:34:37.593Z,7.92
2023-01-13T19:36:42.587Z,7.98
2023-01-13T19:38:47.925Z,8.05
2023-01-13T19:40:59.680Z,8.12
2023-01-13T19:43:04.611Z,8.22
2023-01-13T19:45:12.800Z,8.29
2023-01-13T19:47:19.216Z,8.36
2023-01-13T19:49:26.364Z,8.44
2023-01-13T19:51:31.463Z,8.55
2023-01-13T19:53:36.430Z,8.67
2023-01-13T19:55:45.508Z,8.79
2023-01-13T19:57:50.736Z,8.89
2023-01-13T19:59:56.115Z,8.97
2023-01-13T20:02:02.390Z,9.05
2023-01-13T20:04:07.658Z,9.11
2023-01-13T20:06:13.831Z,9.16
2023-01-13T20:08:20.572Z,9.20
2023-01-13T20:10:26.446Z,9.26
2023-01-13T20:12:31.573Z,9.28
2023-01-13T20:14:38.398Z,9.31
2023-01-13T20:16:45.019Z,9.33
2023-01-13T20:18:53.255Z,9.34
2023-01-13T20:21:02.840Z,9.34
2023-01-13T20:23:09.096Z,9.33
2023-01-13T20:25:15.232Z,9.34
2023-01-13T20:27:21.134Z,9.32
2023-01-13T20:29:26.393Z,9.32
2023-01-13T20:31:32.432Z,9.31
2023-01-13T20:33:38.490Z,9.29
2023-01-13T20:35:44.443Z,9.28
2023-01-13T20:37:50.019Z,9.28
2023-01-13T20:39:56.510Z,9.26
2023-01-13T20:42:03.898Z,9.26
2023-01-13T20:44:09.943Z,9.26
2023-01-13T20:46:15.799Z,9.25
2023-01-13T20:48:21.212Z,9.24
2023-01-13T20:50:26.598Z,9.24
2023-01-13T20:52:33.567Z,9.23
2023-01-13T20:54:39.319Z,9.22
2023-01-13T20:56:45.676Z,9.20
2023-01-13T20:58:50.593Z,9.20
2023-01-13T21:00:59.826Z,9.20
2023-01-13T21:03:05.679Z,9.19
2023-01-13T21:05:10.687Z,9.18
2023-01-13T21:07:16.114Z,9.16
2023-01-13T21:09:21.201Z,9.15
2023-01-13T21:11:27.960Z,9.16
2023-01-13T21:13:36.131Z,9.14
2023-01-13T21:15:46.161Z,9.12
2023-01-13T21:17:53.981Z,9.13
2023-01-13T21:19:58.925Z,9.14
2023-01-13T21:22:03.968Z,9.13
2023-01-13T21:24:08.772Z,9.12
2023-01-13T21:26:14.162Z,9.11
2023-01-13T21:28:19.282Z,9.11
2023-01-13T21:30:24.100Z,9.11
2023-01-13T21:32:28.904Z,9.12
2023-01-13T21:34:34.024Z,9.10
2023-01-13T21:36:38.728Z,9.09
2023-01-13T21:38:43.487Z,9.08
2023-01-13T21:40:55.266Z,9.06
2023-01-13T21:42:59.962Z,9.05
2023-01-13T21:45:05.867Z,9.06
2023-01-13T21:47:16.712Z,9.06
2023-01-13T21:49:21.462Z,9.05
2023-01-13T21:51:26.316Z,9.02
2023-01-13T21:53:31.137Z,9.01
2023-01-13T21:55:36.586Z,8.99
2023-01-13T21:57:44.198Z,8.97
2023-01-13T21:59:51.746Z,8.95
2023-01-13T22:02:12.339Z,8.93
2023-01-13T22:04:21.431Z,8.91
2023-01-13T22:06:26.857Z,8.90
2023-01-13T22:08:31.700Z,8.88
2023-01-13T22:10:36.702Z,8.87
2023-01-13T22:12:41.502Z,8.86
2023-01-13T22:14:46.544Z,8.84
2023-01-13T22:16:51.336Z,8.82
2023-01-13T22:18:56.133Z,8.81
2023-01-13T22:21:03.043Z,8.78
2023-01-13T22:23:07.769Z,8.77
2023-01-13T22:25:14.325Z,8.77
2023-01-13T22:27:20.911Z,8.76
2023-01-13T22:29:25.635Z,8.76
2023-01-13T22:31:30.380Z,8.76
2023-01-13T22:33:35.093Z,8.75
2023-01-13T22:35:39.847Z,8.74
2023-01-13T22:37:44.615Z,8.71
2023-01-13T22:39:49.330Z,8.70
2023-01-13T22:41:54.249Z,8.67
2023-01-13T22:43:59.023Z,8.66
2023-01-13T22:46:06.351Z,8.64
2023-01-13T22:48:11.161Z,8.64
2023-01-13T22:50:15.971Z,8.63
2023-01-13T22:52:20.693Z,8.63
2023-01-13T22:54:25.735Z,8.60
2023-01-13T22:56:31.164Z,8.59
2023-01-13T22:58:36.705Z,8.59
2023-01-13T23:00:41.367Z,8.58
2023-01-13T23:02:46.071Z,8.58
2023-01-13T23:04:50.798Z,8.56
2023-01-13T23:06:56.763Z,8.55
2023-01-13T23:09:02.044Z,8.52
2023-01-13T23:11:14.561Z,8.52
2023-01-13T23:13:19.611Z,8.51
2023-01-13T23:15:24.423Z,8.50
2023-01-13T23:17:29.214Z,8.49
2023-01-13T23:19:33.979Z,8.46
2023-01-13T23:21:39.269Z,8.44
2023-01-13T23:23:44.308Z,8.41
2023-01-13T23:25:52.201Z,8.39
2023-01-13T23:27:56.959Z,8.38
2023-01-13T23:30:01.824Z,8.36
2023-01-13T23:32:07.249Z,8.33
2023-01-13T23:34:11.992Z,8.31
2023-01-13T23:36:18.493Z,8.29
2023-01-13T23:38:23.275Z,8.28
2023-01-13T23:40:28.051Z,8.26
2023-01-13T23:42:32.767Z,8.25
2023-01-13T23:44:37.453Z,8.23
2023-01-13T23:46:42.264Z,8.21
2023-01-13T23:48:47.499Z,8.18
2023-01-13T23:51:00.537Z,8.15
2023-01-13T23:53:05.184Z,8.14
2023-01-13T23:55:10.796Z,8.12
2023-01-13T23:57:15.498Z,8.09
2023-01-13T23:59:20.217Z,8.08
